createdAt,value
2019-02-17T00:01:28.980Z,83.30
2019-02-17T00:03:58.713Z,83.60
2019-02-17T00:06:30.391Z,83.80
2019-02-17T00:09:00.729Z,84.00
2019-02-17T00:11:32.371Z,84.10
2019-02-17T00:14:04.523Z,84.00
2019-02-17T00:16:36.556Z,83.80
2019-02-17T00:19:09.280Z,84.00
2019-02-17T00:21:39.670Z,84.10
2019-02-17T00:24:11.604Z,84.00
2019-02-17T00:26:43.603Z,84.00
2019-02-17T00:29:14.314Z,84.10
2019-02-17T00:31:45.071Z,84.20
2019-02-17T00:34:15.854Z,84.30
2019-02-17T00:36:46.715Z,84.40
2019-02-17T00:39:17.075Z,84.30
2019-02-17T00:41:49.900Z,84.10
2019-02-17T00:44:21.228Z,83.90
2019-02-17T00:46:52.059Z,83.60
2019-02-17T00:49:23.266Z,83.80
2019-02-17T00:51:54.094Z,83.60
2019-02-17T00:54:24.835Z,83.90
2019-02-17T00:56:55.013Z,83.80
2019-02-17T00:59:25.270Z,84.00
2019-02-17T01:01:56.404Z,84.00
2019-02-17T01:04:28.468Z,83.90
2019-02-17T01:07:00.093Z,83.70
2019-02-17T01:09:31.135Z,83.50
2019-02-17T01:12:03.098Z,83.70
2019-02-17T01:14:34.757Z,84.20
2019-02-17T01:17:10.231Z,84.10
2019-02-17T01:19:40.649Z,84.10
2019-02-17T01:22:12.183Z,83.70
2019-02-17T01:24:45.190Z,83.90
2019-02-17T01:27:14.864Z,84.10
2019-02-17T01:29:46.235Z,84.40
2019-02-17T01:32:16.735Z,84.30
2019-02-17T01:34:48.223Z,84.20
2019-02-17T01:37:20.295Z,84.20
2019-02-17T01:39:55.077Z,84.20
2019-02-17T01:42:28.488Z,83.80
2019-02-17T01:44:58.989Z,83.70
2019-02-17T01:47:30.301Z,83.50
2019-02-17T01:50:02.649Z,83.70
2019-02-17T01:52:34.428Z,83.50
2019-02-17T01:55:05.751Z,83.70
2019-02-17T01:57:37.764Z,83.80
2019-02-17T02:00:10.724Z,84.00
2019-02-17T02:02:42.164Z,84.20
2019-02-17T02:05:14.491Z,84.40
2019-02-17T02:07:44.798Z,84.30
2019-02-17T02:10:15.181Z,84.40
2019-02-17T02:12:45.898Z,84.40
2019-02-17T02:15:17.632Z,84.50
2019-02-17T02:17:48.930Z,84.00
2019-02-17T02:20:19.936Z,84.40
2019-02-17T02:22:48.988Z,84.40
2019-02-17T02:25:20.474Z,84.40
2019-02-17T02:27:51.594Z,84.10
2019-02-17T02:30:22.401Z,84.20
2019-02-17T02:32:53.002Z,84.00
2019-02-17T02:35:23.242Z,84.00
2019-02-17T02:37:55.491Z,83.90
2019-02-17T02:40:31.263Z,84.00
2019-02-17T02:43:04.012Z,84.10
2019-02-17T02:45:36.107Z,84.30
2019-02-17T02:48:08.001Z,84.30
2019-02-17T02:50:39.865Z,84.30
2019-02-17T02:53:12.055Z,84.30
2019-02-17T02:55:43.483Z,84.40
2019-02-17T02:58:16.782Z,84.30
2019-02-17T03:00:47.627Z,84.50
2019-02-17T03:03:18.013Z,85.10
2019-02-17T03:08:42.202Z,84.90
2019-02-17T03:11:11.859Z,84.80
2019-02-17T03:13:42.825Z,84.70
2019-02-17T03:16:13.891Z,84.70
2019-02-17T03:18:43.515Z,84.80
2019-02-17T03:21:15.967Z,84.50
2019-02-17T03:23:45.915Z,84.70
2019-02-17T03:26:17.842Z,84.70
2019-02-17T03:28:47.459Z,84.60
2019-02-17T03:31:18.828Z,84.90
2019-02-17T03:33:53.345Z,84.80
2019-02-17T03:36:22.906Z,84.80
2019-02-17T03:38:53.598Z,84.90
2019-02-17T03:41:25.195Z,84.90
2019-02-17T03:43:54.772Z,84.90
2019-02-17T03:46:25.578Z,84.70
2019-02-17T03:48:57.417Z,84.70
2019-02-17T03:51:28.909Z,84.30
2019-02-17T03:54:00.351Z,84.20
2019-02-17T03:56:32.065Z,84.30
2019-02-17T03:59:03.552Z,84.30
2019-02-17T04:01:35.384Z,84.40
2019-02-17T04:04:07.616Z,84.30
2019-02-17T04:06:38.434Z,84.10
2019-02-17T04:09:09.288Z,84.20
2019-02-17T04:11:39.837Z,84.70
2019-02-17T04:14:10.596Z,84.50
2019-02-17T04:16:42.067Z,84.40
2019-02-17T04:19:13.340Z,84.30
2019-02-17T04:21:45.598Z,84.30
2019-02-17T04:24:17.280Z,84.20
2019-02-17T04:26:48.291Z,84.40
2019-02-17T04:29:21.635Z,84.40
2019-02-17T04:31:53.083Z,84.40
2019-02-17T04:34:23.788Z,84.10
2019-02-17T04:36:56.760Z,84.20
2019-02-17T04:39:28.051Z,84.20
2019-02-17T04:41:58.390Z,84.00
2019-02-17T04:44:29.734Z,84.10
2019-02-17T04:47:00.659Z,84.00
2019-02-17T04:49:32.121Z,84.50
2019-02-17T04:52:02.865Z,84.40
2019-02-17T04:54:33.577Z,84.20
2019-02-17T04:57:04.614Z,84.10
2019-02-17T04:59:36.109Z,84.40
2019-02-17T05:02:07.455Z,84.40
2019-02-17T05:04:37.735Z,84.40
2019-02-17T05:07:07.535Z,84.30
2019-02-17T05:09:38.391Z,84.40
2019-02-17T05:12:09.842Z,84.40
2019-02-17T05:14:41.182Z,84.60
2019-02-17T05:17:12.818Z,84.70
2019-02-17T05:19:44.894Z,84.50
2019-02-17T05:22:15.928Z,84.60
2019-02-17T05:24:47.604Z,84.60
2019-02-17T05:27:20.878Z,85.00
2019-02-17T05:29:53.467Z,85.20
2019-02-17T05:32:27.614Z,85.60
2019-02-17T05:34:59.863Z,85.50
2019-02-17T05:37:32.546Z,85.40
2019-02-17T05:40:03.524Z,85.60
2019-02-17T05:42:33.903Z,85.40
2019-02-17T05:45:05.251Z,85.40
2019-02-17T05:47:36.838Z,85.30
2019-02-17T05:50:08.805Z,85.20
2019-02-17T05:52:39.638Z,85.10
2019-02-17T05:55:13.079Z,85.10
2019-02-17T05:57:43.895Z,84.90
2019-02-17T06:00:16.310Z,85.10
2019-02-17T06:02:49.251Z,85.20
2019-02-17T06:07:55.722Z,85.10
2019-02-17T06:10:28.966Z,85.10
2019-02-17T06:12:59.682Z,85.10
2019-02-17T06:15:30.121Z,84.80
2019-02-17T06:18:01.549Z,85.00
2019-02-17T06:20:32.678Z,85.30
2019-02-17T06:23:04.443Z,85.50
2019-02-17T06:25:34.914Z,85.20
2019-02-17T06:28:08.247Z,85.40
2019-02-17T06:30:40.833Z,85.20
2019-02-17T06:33:10.496Z,85.10
2019-02-17T06:35:41.493Z,84.80
2019-02-17T06:38:13.685Z,84.70
2019-02-17T06:40:44.420Z,84.10
2019-02-17T06:43:15.191Z,83.20
2019-02-17T06:45:45.583Z,83.60
2019-02-17T06:48:17.074Z,83.80
2019-02-17T06:50:48.117Z,84.10
2019-02-17T06:53:19.740Z,84.70
2019-02-17T06:55:54.562Z,84.80
2019-02-17T06:58:24.990Z,84.60
2019-02-17T07:00:55.259Z,84.60
2019-02-17T07:03:26.388Z,84.50
2019-02-17T07:05:58.890Z,84.50
2019-02-17T07:08:31.343Z,84.30
2019-02-17T07:11:02.125Z,84.10
2019-02-17T07:13:33.190Z,84.20
2019-02-17T07:16:05.115Z,83.80
2019-02-17T07:18:36.556Z,83.70
2019-02-17T07:21:09.311Z,83.70
2019-02-17T07:23:41.234Z,83.30
2019-02-17T07:26:10.309Z,83.20
2019-02-17T07:29:00.735Z,83.50
2019-02-17T07:31:35.446Z,83.30
2019-02-17T07:34:07.622Z,83.10
2019-02-17T07:36:41.718Z,82.50
2019-02-17T07:39:13.155Z,82.60
2019-02-17T07:41:45.202Z,82.00
2019-02-17T07:44:15.875Z,81.60
2019-02-17T07:49:23.318Z,81.50
2019-02-17T07:51:55.311Z,81.20
2019-02-17T07:54:26.343Z,81.20
2019-02-17T07:56:58.675Z,80.90
2019-02-17T07:59:29.035Z,80.40
2019-02-17T08:01:59.368Z,80.20
2019-02-17T08:04:33.680Z,79.20
2019-02-17T08:07:04.250Z,78.60
2019-02-17T08:09:36.224Z,78.30
2019-02-17T08:12:08.074Z,77.90
2019-02-17T08:14:40.450Z,77.60
2019-02-17T08:17:13.181Z,77.40
2019-02-17T08:19:43.860Z,77.80
2019-02-17T08:22:14.762Z,77.30
2019-02-17T08:24:50.107Z,77.10
2019-02-17T08:27:20.403Z,76.70
2019-02-17T08:29:51.415Z,76.30
2019-02-17T08:32:22.374Z,76.20
2019-02-17T08:34:53.230Z,75.30
2019-02-17T08:37:26.279Z,74.70
2019-02-17T08:40:00.353Z,74.40
2019-02-17T08:42:31.193Z,73.90
2019-02-17T08:45:03.304Z,70.60
2019-02-17T08:47:33.632Z,65.00
2019-02-17T08:50:04.719Z,60.40
2019-02-17T08:52:54.881Z,57.80
2019-02-17T08:55:25.696Z,56.00
2019-02-17T08:57:55.903Z,54.50
2019-02-17T09:00:25.450Z,53.30
2019-02-17T09:02:55.387Z,53.80
2019-02-17T09:05:25.094Z,53.90
2019-02-17T09:07:59.397Z,53.60
2019-02-17T09:10:28.450Z,54.00
2019-02-17T09:13:00.024Z,54.80
2019-02-17T09:15:34.645Z,56.30
2019-02-17T09:18:07.312Z,57.30
2019-02-17T09:20:38.593Z,58.40
2019-02-17T09:23:09.119Z,59.50
2019-02-17T09:25:42.619Z,58.80
2019-02-17T09:28:12.789Z,58.10
2019-02-17T09:30:45.783Z,56.60
2019-02-17T09:33:19.061Z,56.10
2019-02-17T09:35:51.268Z,56.90
2019-02-17T09:38:23.085Z,57.70
2019-02-17T09:40:55.012Z,59.30
2019-02-17T09:43:25.187Z,59.20
2019-02-17T09:45:57.120Z,60.20
2019-02-17T09:48:29.213Z,59.30
2019-02-17T09:51:01.196Z,58.50
2019-02-17T09:53:33.150Z,60.10
2019-02-17T09:56:04.479Z,59.90
2019-02-17T09:58:34.107Z,59.00
2019-02-17T10:01:06.285Z,59.50
2019-02-17T10:03:39.958Z,59.70
2019-02-17T10:06:10.938Z,58.30
2019-02-17T10:08:43.966Z,58.10
2019-02-17T10:11:14.286Z,57.30
2019-02-17T10:13:44.625Z,57.20
2019-02-17T10:16:16.131Z,56.60
2019-02-17T10:18:45.766Z,55.00
2019-02-17T10:21:36.258Z,56.20
2019-02-17T10:24:08.886Z,55.20
2019-02-17T10:26:40.397Z,55.20
2019-02-17T10:29:12.119Z,54.70
2019-02-17T10:31:45.437Z,54.80
2019-02-17T10:34:17.114Z,53.70
2019-02-17T10:36:50.051Z,53.50
2019-02-17T10:39:23.153Z,53.20
2019-02-17T10:41:56.213Z,52.90
2019-02-17T10:44:27.699Z,52.90
2019-02-17T10:46:59.627Z,51.60
2019-02-17T10:49:29.993Z,50.00
2019-02-17T10:52:01.320Z,49.30
2019-02-17T10:54:35.857Z,48.40
2019-02-17T10:57:07.788Z,50.40
2019-02-17T10:59:41.084Z,50.30
2019-02-17T11:02:12.443Z,48.90
2019-02-17T11:04:44.969Z,47.90
2019-02-17T11:07:18.900Z,46.20
2019-02-17T11:09:50.987Z,44.80
2019-02-17T11:12:23.661Z,48.70
2019-02-17T11:14:53.638Z,47.30
2019-02-17T11:17:26.399Z,46.80
2019-02-17T11:19:58.478Z,47.90
2019-02-17T11:22:31.913Z,48.30
2019-02-17T11:25:03.452Z,48.30
2019-02-17T11:27:36.900Z,49.20
2019-02-17T11:30:09.847Z,48.40
2019-02-17T11:32:39.592Z,47.80
2019-02-17T11:35:10.434Z,50.10
2019-02-17T11:37:41.756Z,46.30
2019-02-17T11:40:13.590Z,45.90
2019-02-17T11:42:45.473Z,43.30
2019-02-17T11:45:25.679Z,43.00
2019-02-17T11:47:56.100Z,40.70
2019-02-17T11:50:27.430Z,41.90
2019-02-17T11:52:58.828Z,39.80
2019-02-17T11:55:31.737Z,39.60
2019-02-17T11:58:02.391Z,37.70
2019-02-17T12:00:34.306Z,38.50
2019-02-17T12:03:07.932Z,40.20
2019-02-17T12:05:36.185Z,39.40
2019-02-17T12:08:07.078Z,39.10
2019-02-17T12:10:37.557Z,37.60
2019-02-17T12:13:10.189Z,39.60
2019-02-17T12:15:40.600Z,36.80
2019-02-17T12:18:11.448Z,36.80
2019-02-17T12:20:47.196Z,38.10
2019-02-17T12:23:20.216Z,38.70
2019-02-17T12:25:55.417Z,37.40
2019-02-17T12:28:32.506Z,36.50
2019-02-17T12:31:02.222Z,36.20
2019-02-17T12:33:33.040Z,35.60
2019-02-17T12:36:04.567Z,36.30
2019-02-17T12:38:39.175Z,36.30
2019-02-17T12:41:11.884Z,34.70
2019-02-17T12:43:43.914Z,36.20
2019-02-17T12:46:16.162Z,34.50
2019-02-17T12:48:47.562Z,35.20
2019-02-17T12:51:17.909Z,35.40
2019-02-17T12:53:48.379Z,33.50
2019-02-17T12:56:22.021Z,33.40
2019-02-17T12:58:51.830Z,35.00
2019-02-17T13:01:22.203Z,34.90
2019-02-17T13:03:52.513Z,35.80
2019-02-17T13:06:22.646Z,35.70
2019-02-17T13:08:56.052Z,36.40
2019-02-17T13:11:27.163Z,36.30
2019-02-17T13:13:58.670Z,36.10
2019-02-17T13:16:29.336Z,35.10
2019-02-17T13:19:04.059Z,35.50
2019-02-17T13:21:34.739Z,35.20
2019-02-17T13:24:06.086Z,34.00
2019-02-17T13:26:36.484Z,32.70
2019-02-17T13:29:08.219Z,32.80
2019-02-17T13:31:40.406Z,33.60
2019-02-17T13:34:12.639Z,33.90
2019-02-17T13:36:44.994Z,34.90
2019-02-17T13:39:16.642Z,35.00
2019-02-17T13:41:47.439Z,35.00
2019-02-17T13:44:19.337Z,34.70
2019-02-17T13:46:49.978Z,34.60
2019-02-17T13:49:20.121Z,33.80
2019-02-17T13:51:52.048Z,34.00
2019-02-17T13:54:25.914Z,35.30
2019-02-17T13:56:57.389Z,35.40
2019-02-17T13:59:29.109Z,36.30
2019-02-17T14:02:00.427Z,35.90
2019-02-17T14:04:31.786Z,35.00
2019-02-17T14:07:01.529Z,36.00
2019-02-17T14:09:33.194Z,35.10
2019-02-17T14:12:04.781Z,34.70
2019-02-17T14:14:35.224Z,35.40
2019-02-17T14:17:07.757Z,35.60
2019-02-17T14:19:39.847Z,35.70
2019-02-17T14:22:11.202Z,36.60
2019-02-17T14:24:45.327Z,36.50
2019-02-17T14:27:16.186Z,34.30
2019-02-17T14:29:47.175Z,36.10
2019-02-17T14:32:19.538Z,37.40
2019-02-17T14:34:51.432Z,36.90
2019-02-17T14:37:22.982Z,36.90
2019-02-17T14:39:54.862Z,38.20
2019-02-17T14:42:25.661Z,36.50
2019-02-17T14:44:59.008Z,37.40
2019-02-17T14:47:29.665Z,38.10
2019-02-17T14:49:58.888Z,38.20
2019-02-17T14:52:30.164Z,38.60
2019-02-17T14:54:59.768Z,37.70
2019-02-17T14:57:30.454Z,37.70
2019-02-17T15:00:01.212Z,38.30
2019-02-17T15:02:30.988Z,39.80
2019-02-17T15:05:03.425Z,41.10
2019-02-17T15:07:35.455Z,42.10
2019-02-17T15:10:11.182Z,44.20
2019-02-17T15:12:42.145Z,45.70
2019-02-17T15:15:14.769Z,47.10
2019-02-17T15:17:44.968Z,47.70
2019-02-17T15:20:22.671Z,48.60
2019-02-17T15:22:53.500Z,49.70
2019-02-17T15:25:26.875Z,50.10
2019-02-17T15:27:57.067Z,51.10
2019-02-17T15:30:29.007Z,51.40
2019-02-17T15:33:04.111Z,50.70
2019-02-17T15:35:33.172Z,49.80
2019-02-17T15:38:06.948Z,48.80
2019-02-17T15:40:37.126Z,48.30
2019-02-17T15:43:07.865Z,48.80
2019-02-17T15:45:39.362Z,49.90
2019-02-17T15:48:09.699Z,51.20
2019-02-17T15:51:06.240Z,52.50
2019-02-17T15:53:34.905Z,53.70
2019-02-17T15:56:05.296Z,54.10
2019-02-17T15:58:36.643Z,55.10
2019-02-17T16:01:08.114Z,55.40
2019-02-17T16:03:40.152Z,55.90
2019-02-17T16:06:12.208Z,56.10
2019-02-17T16:08:45.879Z,56.50
2019-02-17T16:11:18.020Z,56.90
2019-02-17T16:13:48.691Z,59.00
2019-02-17T16:16:22.911Z,59.70
2019-02-17T16:18:55.113Z,60.70
2019-02-17T16:21:29.047Z,61.30
2019-02-17T16:24:01.016Z,62.00
2019-02-17T16:26:35.182Z,62.40
2019-02-17T16:29:07.338Z,63.10
2019-02-17T16:31:38.627Z,63.40
2019-02-17T16:34:08.845Z,63.40
2019-02-17T16:36:39.808Z,63.60
2019-02-17T16:39:15.177Z,64.20
2019-02-17T16:41:48.607Z,64.30
2019-02-17T16:44:20.062Z,64.60
2019-02-17T16:46:50.753Z,65.20
2019-02-17T16:49:22.753Z,65.80
2019-02-17T16:51:54.007Z,66.60
2019-02-17T16:54:26.392Z,67.00
2019-02-17T16:56:57.625Z,67.70
2019-02-17T16:59:30.544Z,67.80
2019-02-17T17:02:01.758Z,68.60
2019-02-17T17:04:31.579Z,68.80
2019-02-17T17:07:01.668Z,69.20
2019-02-17T17:09:32.204Z,69.50
2019-02-17T17:12:03.790Z,69.70
2019-02-17T17:14:33.875Z,69.50
2019-02-17T17:17:05.074Z,70.00
2019-02-17T17:19:35.796Z,70.00
2019-02-17T17:22:08.114Z,70.30
2019-02-17T17:24:40.953Z,69.60
2019-02-17T17:27:13.028Z,69.60
2019-02-17T17:29:45.146Z,69.60
2019-02-17T17:32:17.326Z,69.70
2019-02-17T17:34:48.043Z,69.80
2019-02-17T17:37:20.995Z,69.90
2019-02-17T17:39:54.896Z,69.90
2019-02-17T17:42:25.530Z,69.90
2019-02-17T17:44:55.887Z,70.10
2019-02-17T17:47:27.244Z,70.50
2019-02-17T17:49:58.748Z,70.70
2019-02-17T17:52:29.599Z,70.80
2019-02-17T17:55:00.361Z,71.70
2019-02-17T17:57:33.357Z,72.60
2019-02-17T18:00:04.279Z,73.10
2019-02-17T18:02:35.699Z,72.80
2019-02-17T18:05:09.568Z,72.70
2019-02-17T18:10:15.150Z,72.90
2019-02-17T18:12:46.855Z,72.80
2019-02-17T18:15:19.529Z,73.30
2019-02-17T18:17:54.676Z,72.80
2019-02-17T18:20:24.640Z,73.00
2019-02-17T18:22:54.371Z,73.00
2019-02-17T18:25:25.444Z,73.20
2019-02-17T18:27:57.696Z,73.50
2019-02-17T18:30:29.649Z,73.60
2019-02-17T18:33:01.546Z,73.50
2019-02-17T18:35:31.873Z,73.30
2019-02-17T18:38:03.096Z,73.40
2019-02-17T18:40:44.469Z,73.50
2019-02-17T18:43:06.969Z,73.70
2019-02-17T18:45:37.816Z,74.00
2019-02-17T18:48:09.332Z,74.20
2019-02-17T18:50:40.936Z,74.20
2019-02-17T18:53:15.357Z,74.20
2019-02-17T18:55:47.038Z,74.30
2019-02-17T18:58:18.892Z,74.30
2019-02-17T19:00:49.311Z,74.70
2019-02-17T19:03:21.270Z,74.80
2019-02-17T19:08:29.873Z,75.30
2019-02-17T19:11:03.917Z,75.40
2019-02-17T19:13:35.714Z,75.80
2019-02-17T19:16:08.254Z,76.60
2019-02-17T19:18:39.856Z,76.00
2019-02-17T19:21:11.367Z,75.80
2019-02-17T19:23:42.970Z,75.80
2019-02-17T19:26:13.095Z,76.00
2019-02-17T19:28:44.542Z,75.90
2019-02-17T19:31:18.854Z,76.20
2019-02-17T19:33:54.176Z,76.40
2019-02-17T19:36:24.517Z,76.50
2019-02-17T19:38:55.740Z,77.10
2019-02-17T19:41:27.364Z,77.00
2019-02-17T19:44:01.791Z,77.00
2019-02-17T19:46:33.235Z,76.90
2019-02-17T19:49:03.878Z,76.80
2019-02-17T19:51:34.784Z,77.00
2019-02-17T19:54:07.840Z,77.00
2019-02-17T19:56:39.912Z,77.10
2019-02-17T19:59:12.419Z,77.10
2019-02-17T20:01:44.512Z,77.10
2019-02-17T20:04:20.868Z,77.00
2019-02-17T20:06:52.243Z,77.60
2019-02-17T20:09:23.669Z,78.00
2019-02-17T20:11:56.305Z,77.70
2019-02-17T20:14:29.203Z,77.70
2019-02-17T20:16:59.786Z,78.20
2019-02-17T20:19:30.087Z,77.80
2019-02-17T20:22:01.544Z,77.40
2019-02-17T20:24:32.979Z,77.90
2019-02-17T20:27:03.316Z,77.90
2019-02-17T20:29:33.086Z,77.70
2019-02-17T20:32:05.055Z,78.40
2019-02-17T20:34:38.283Z,78.70
2019-02-17T20:37:07.889Z,78.60
2019-02-17T20:39:41.221Z,78.50
2019-02-17T20:42:13.302Z,78.80
2019-02-17T20:44:45.524Z,79.20
2019-02-17T20:47:19.370Z,79.00
2019-02-17T20:49:51.271Z,78.70
2019-02-17T20:52:21.065Z,78.60
2019-02-17T20:54:52.992Z,78.90
2019-02-17T20:57:23.195Z,78.80
2019-02-17T20:59:54.341Z,78.80
2019-02-17T21:02:26.189Z,78.50
2019-02-17T21:05:00.209Z,78.70
2019-02-17T21:07:32.372Z,79.00
2019-02-17T21:10:03.031Z,78.80
2019-02-17T21:12:34.740Z,79.00
2019-02-17T21:15:05.681Z,79.20
2019-02-17T21:17:37.075Z,79.40
2019-02-17T21:20:08.785Z,79.30
2019-02-17T21:22:40.726Z,79.40
2019-02-17T21:25:15.435Z,79.60
2019-02-17T21:27:48.893Z,79.60
2019-02-17T21:30:21.039Z,79.60
2019-02-17T21:32:53.055Z,79.60
2019-02-17T21:35:26.478Z,79.40
2019-02-17T21:37:59.936Z,79.60
2019-02-17T21:40:33.568Z,79.70
2019-02-17T21:43:04.400Z,79.90
2019-02-17T21:45:35.258Z,80.10
2019-02-17T21:48:06.105Z,80.20
2019-02-17T21:50:58.879Z,80.20
2019-02-17T21:53:29.789Z,80.60
2019-02-17T21:56:01.174Z,80.80
2019-02-17T21:58:33.216Z,80.30
2019-02-17T22:01:04.297Z,80.10
2019-02-17T22:03:34.964Z,80.50
2019-02-17T22:06:07.298Z,80.50
2019-02-17T22:08:38.737Z,80.70
2019-02-17T22:11:10.105Z,81.40
2019-02-17T22:13:43.038Z,81.30
2019-02-17T22:16:13.845Z,81.20
2019-02-17T22:18:45.688Z,81.30
2019-02-17T22:21:17.053Z,81.40
2019-02-17T22:23:47.879Z,82.20
2019-02-17T22:26:21.623Z,82.00
2019-02-17T22:28:52.044Z,81.50
2019-02-17T22:31:24.292Z,81.50
2019-02-17T22:33:55.471Z,81.70
2019-02-17T22:36:29.324Z,81.70
2019-02-17T22:39:00.668Z,81.60
2019-02-17T22:41:30.271Z,81.70
2019-02-17T22:44:01.849Z,81.50
2019-02-17T22:46:32.087Z,81.60
2019-02-17T22:49:02.914Z,81.90
2019-02-17T22:51:33.867Z,81.90
2019-02-17T22:54:05.438Z,81.90
2019-02-17T22:56:38.786Z,82.70
2019-02-17T22:59:09.659Z,83.00
2019-02-17T23:01:40.027Z,83.90
2019-02-17T23:04:11.933Z,84.20
2019-02-17T23:06:53.566Z,84.40
2019-02-17T23:09:15.926Z,83.60
2019-02-17T23:11:48.411Z,83.20
2019-02-17T23:14:18.222Z,83.00
2019-02-17T23:16:52.435Z,83.40
2019-02-17T23:19:23.965Z,84.00
2019-02-17T23:21:53.640Z,84.40
2019-02-17T23:24:25.489Z,84.70
2019-02-17T23:26:56.621Z,85.60
2019-02-17T23:29:28.450Z,86.10
2019-02-17T23:32:00.347Z,86.40
2019-02-17T23:34:31.548Z,85.80
2019-02-17T23:37:05.300Z,85.20
2019-02-17T23:39:39.107Z,85.40
2019-02-17T23:42:09.939Z,86.30
2019-02-17T23:44:42.551Z,86.20
2019-02-17T23:47:14.275Z,86.30
2019-02-17T23:49:45.701Z,86.20
2019-02-17T23:52:17.202Z,85.90
2019-02-17T23:54:48.307Z,85.70
2019-02-17T23:57:19.876Z,85.90
2019-02-17T23:59:50.539Z,85.80
